Time;durP1;ratioP1;P1;durP2;ratioP2;P2;SDS_P1;SDS_P2;PMS_P1;PMS_P2;Temp;Humidity;BMP_temperature;BMP_pressure;BME280_temperature;BME280_humidity;BME280_pressure;Samples;Min_cycle;Max_cycle;Signal;HPM_P1;HPM_P2
2023/09/15 00:01:32;;;;;;;16.90;11.35;;;15.90;99.90;;;;;;5033309;28;20067;-91
2023/09/15 00:03:58;;;;;;;15.95;10.10;;;15.90;99.90;;;;;;5033038;28;20045;-91
2023/09/15 00:06:25;;;;;;;17.17;11.27;;;15.90;99.90;;;;;;5033841;28;20022;-92
2023/09/15 00:08:50;;;;;;;25.50;13.68;;;15.90;99.90;;;;;;5038380;28;20032;-90
2023/09/15 00:11:17;;;;;;;24.15;14.00;;;15.90;99.90;;;;;;5039815;28;20045;-90
2023/09/15 00:13:44;;;;;;;20.80;13.68;;;15.90;99.90;;;;;;5042002;28;20018;-91
2023/09/15 00:16:10;;;;;;;26.75;16.17;;;15.90;99.90;;;;;;5043045;28;20047;-91
2023/09/15 00:18:35;;;;;;;23.38;14.68;;;15.90;99.90;;;;;;5041261;28;20094;-92
2023/09/15 00:21:02;;;;;;;31.60;15.75;;;15.80;99.90;;;;;;5035924;28;20128;-92
2023/09/15 00:23:28;;;;;;;27.45;15.57;;;15.80;99.90;;;;;;5034606;28;20049;-92
2023/09/15 00:25:54;;;;;;;24.77;15.05;;;15.80;99.90;;;;;;5034299;28;20076;-93
2023/09/15 00:28:21;;;;;;;25.77;14.40;;;15.80;99.90;;;;;;5034603;28;20025;-92
2023/09/15 00:30:50;;;;;;;28.45;15.60;;;15.80;99.90;;;;;;5033455;28;20116;-94
2023/09/15 00:33:16;;;;;;;29.92;14.88;;;15.80;99.90;;;;;;5034564;28;20071;-94
2023/09/15 00:35:42;;;;;;;27.77;15.38;;;15.70;99.90;;;;;;5034292;28;20091;-93
2023/09/15 00:38:07;;;;;;;28.52;15.90;;;15.70;99.90;;;;;;5034180;28;20394;-93
2023/09/15 00:40:33;;;;;;;28.13;15.38;;;15.70;99.90;;;;;;5032652;28;20031;-93
2023/09/15 00:42:59;;;;;;;24.42;13.98;;;15.70;99.90;;;;;;5032927;28;20111;-93
2023/09/15 00:45:26;;;;;;;28.95;15.15;;;15.70;99.90;;;;;;5033526;28;20029;-92
2023/09/15 00:47:56;;;;;;;21.30;12.85;;;15.70;99.90;;;;;;5032823;28;20033;-92
2023/09/15 00:50:25;;;;;;;23.17;14.35;;;15.70;99.90;;;;;;5034066;28;20040;-91
2023/09/15 00:52:54;;;;;;;19.77;12.45;;;15.70;99.90;;;;;;5029730;28;20026;-88
2023/09/15 00:55:24;;;;;;;22.13;12.68;;;15.70;99.90;;;;;;5029795;28;20468;-91
2023/09/15 00:57:53;;;;;;;25.63;12.00;;;15.60;99.90;;;;;;5014044;28;20100;-92
2023/09/15 01:00:19;;;;;;;20.58;10.77;;;15.60;99.90;;;;;;5013991;28;20041;-92
2023/09/15 01:02:46;;;;;;;20.98;10.68;;;15.60;99.90;;;;;;5029277;28;20095;-92
2023/09/15 01:05:19;;;;;;;16.77;9.52;;;15.70;99.90;;;;;;5029066;28;20041;-92
2023/09/15 01:07:46;;;;;;;22.20;10.20;;;15.60;99.90;;;;;;5028697;28;20080;-92
2023/09/15 01:10:14;;;;;;;20.52;10.30;;;15.60;99.90;;;;;;5013742;28;20101;-93
2023/09/15 01:12:40;;;;;;;22.85;10.65;;;15.50;99.90;;;;;;5028944;28;20034;-91
2023/09/15 01:15:06;;;;;;;23.92;11.02;;;15.50;99.90;;;;;;5028636;28;20117;-92
2023/09/15 01:18:10;;;;;;;23.73;11.27;;;15.50;99.90;;;;;;5039442;28;20038;-91
2023/09/15 01:20:59;;;;;;;28.67;12.77;;;15.50;99.90;;;;;;5013210;28;20038;-92
2023/09/15 01:24:10;;;;;;;31.25;12.77;;;15.50;99.90;;;;;;5010774;28;20054;-91
2023/09/15 01:26:43;;;;;;;;;;;15.50;99.90;;;;;;5017520;28;20029;-91
2023/09/15 01:29:28;;;;;;;30.35;14.00;;;15.50;99.90;;;;;;5033410;28;20379;-91
2023/09/15 01:31:55;;;;;;;32.05;15.02;;;15.50;99.90;;;;;;5032610;28;20548;-93
2023/09/15 01:34:20;;;;;;;32.03;15.68;;;15.50;99.90;;;;;;5032746;28;20030;-91
2023/09/15 01:36:46;;;;;;;30.65;15.02;;;15.50;99.90;;;;;;5016399;28;20030;-91
2023/09/15 01:39:12;;;;;;;25.23;14.75;;;15.50;99.90;;;;;;5016050;28;20034;-91
2023/09/15 01:41:38;;;;;;;29.58;15.15;;;15.50;99.90;;;;;;5015634;28;20037;-91
2023/09/15 01:44:03;;;;;;;32.90;15.02;;;15.50;99.90;;;;;;5032047;28;20033;-91
2023/09/15 01:46:29;;;;;;;24.67;12.98;;;15.50;99.90;;;;;;5016298;28;20101;-89
2023/09/15 01:48:57;;;;;;;26.70;13.63;;;15.60;99.90;;;;;;5015563;28;20076;-91
2023/09/15 01:51:23;;;;;;;25.27;13.98;;;15.60;99.90;;;;;;5017381;28;20026;-91
2023/09/15 01:53:52;;;;;;;22.48;12.27;;;15.60;99.90;;;;;;5032383;28;20041;-91
2023/09/15 01:56:19;;;;;;;24.63;14.07;;;15.60;99.90;;;;;;5016738;28;20018;-91
2023/09/15 01:58:45;;;;;;;23.85;12.75;;;15.60;99.90;;;;;;5031918;28;20026;-90
2023/09/15 02:01:11;;;;;;;23.55;12.60;;;15.60;99.90;;;;;;5031820;28;20022;-92
2023/09/15 02:03:37;;;;;;;24.48;12.02;;;15.70;99.90;;;;;;5016409;28;20064;-89
2023/09/15 02:06:04;;;;;;;22.33;12.38;;;15.70;99.90;;;;;;5016165;28;20459;-90
2023/09/15 02:08:31;;;;;;;22.45;12.02;;;15.70;99.90;;;;;;5032108;28;20030;-91
2023/09/15 02:10:57;;;;;;;20.65;10.48;;;15.70;99.90;;;;;;5016670;28;20033;-91
2023/09/15 02:13:22;;;;;;;18.48;11.93;;;15.70;99.90;;;;;;5031955;28;20026;-92
2023/09/15 02:15:52;;;;;;;20.17;12.05;;;15.70;99.90;;;;;;5015149;28;20030;-92
2023/09/15 02:18:18;;;;;;;19.27;12.40;;;15.70;99.90;;;;;;5031197;28;20137;-90
2023/09/15 02:20:44;;;;;;;21.08;12.50;;;15.70;99.90;;;;;;5031398;28;20595;-92
2023/09/15 02:23:09;;;;;;;18.08;11.43;;;15.70;99.90;;;;;;5031939;28;20034;-93
2023/09/15 02:25:35;;;;;;;20.50;12.10;;;15.70;99.90;;;;;;5017295;28;20026;-92
2023/09/15 02:28:02;;;;;;;19.02;12.93;;;15.70;99.90;;;;;;5043537;28;20037;-89
2023/09/15 02:30:27;;;;;;;18.65;12.25;;;15.70;99.90;;;;;;5045966;28;20023;-91
2023/09/15 02:32:53;;;;;;;18.10;12.52;;;15.70;99.90;;;;;;5039677;28;20022;-91
2023/09/15 02:35:20;;;;;;;18.20;12.15;;;15.70;99.90;;;;;;5020944;28;20034;-91
2023/09/15 02:37:45;;;;;;;18.27;10.63;;;15.70;99.90;;;;;;5031705;28;20029;-92
2023/09/15 02:40:14;;;;;;;18.38;10.45;;;15.80;99.90;;;;;;5032222;28;20553;-90
2023/09/15 02:42:40;;;;;;;20.70;12.25;;;15.80;99.90;;;;;;5031423;28;20030;-91
2023/09/15 02:45:06;;;;;;;25.05;12.13;;;15.80;99.90;;;;;;5015762;28;20104;-90
2023/09/15 02:47:32;;;;;;;18.48;11.38;;;15.80;99.90;;;;;;5015277;28;20032;-91
2023/09/15 02:49:57;;;;;;;17.92;11.48;;;15.80;99.90;;;;;;5031337;28;20026;-91
2023/09/15 02:52:23;;;;;;;15.52;10.18;;;15.80;99.90;;;;;;5014915;28;20034;-92
2023/09/15 02:54:49;;;;;;;20.05;11.25;;;15.80;99.90;;;;;;5030698;28;20048;-90
2023/09/15 02:57:14;;;;;;;15.70;11.68;;;15.80;99.90;;;;;;5030602;28;20022;-91
2023/09/15 02:59:40;;;;;;;15.63;10.82;;;15.80;99.90;;;;;;5014146;28;20077;-92
2023/09/15 03:02:12;;;;;;;16.17;11.05;;;15.80;99.90;;;;;;5015481;28;20057;-91
2023/09/15 03:04:37;;;;;;;16.55;10.80;;;15.80;99.90;;;;;;5016520;28;20034;-92
2023/09/15 03:07:03;;;;;;;16.65;10.82;;;15.80;99.90;;;;;;5018357;28;20025;-92
2023/09/15 03:09:31;;;;;;;19.08;11.40;;;15.80;99.90;;;;;;5021557;28;20443;-91
2023/09/15 03:11:57;;;;;;;11.82;7.57;;;15.80;99.90;;;;;;5039468;28;20033;-91
2023/09/15 03:14:23;;;;;;;15.30;10.60;;;15.80;99.90;;;;;;5043585;28;20094;-90
2023/09/15 03:16:48;;;;;;;15.88;11.30;;;15.80;99.90;;;;;;5040741;28;20030;-91
2023/09/15 03:19:14;;;;;;;18.17;11.73;;;15.80;99.90;;;;;;5017204;28;20506;-90
2023/09/15 03:21:40;;;;;;;19.92;11.35;;;15.80;99.90;;;;;;5016938;28;20033;-91
2023/09/15 03:24:07;;;;;;;18.05;12.30;;;15.80;99.90;;;;;;5014879;28;20097;-91
2023/09/15 03:26:33;;;;;;;18.40;11.90;;;15.80;99.90;;;;;;5031804;28;20049;-92
2023/09/15 03:28:59;;;;;;;19.65;11.32;;;15.80;99.90;;;;;;5031067;28;20026;-92
2023/09/15 03:31:24;;;;;;;17.90;11.75;;;15.80;99.90;;;;;;5030485;28;20575;-91
2023/09/15 03:33:50;;;;;;;19.55;11.15;;;15.80;99.90;;;;;;5030892;28;20037;-93
2023/09/15 03:36:16;;;;;;;20.35;11.63;;;15.80;99.90;;;;;;5015236;28;20032;-90
2023/09/15 03:38:42;;;;;;;18.60;11.10;;;15.80;99.90;;;;;;5014129;28;20053;-93
2023/09/15 03:41:07;;;;;;;16.23;10.55;;;15.80;99.90;;;;;;5030536;28;20080;-92
2023/09/15 03:43:33;;;;;;;18.13;11.05;;;15.80;99.90;;;;;;5012876;28;20037;-91
2023/09/15 03:45:59;;;;;;;17.70;11.63;;;15.80;99.90;;;;;;5029915;28;20034;-92
2023/09/15 03:48:25;;;;;;;19.23;11.57;;;15.80;99.90;;;;;;5013904;28;20100;-92
2023/09/15 03:50:52;;;;;;;13.32;9.23;;;15.80;99.90;;;;;;5029608;28;20463;-93
2023/09/15 03:53:17;;;;;;;19.40;11.25;;;15.80;99.90;;;;;;5029291;28;20029;-94
2023/09/15 03:55:43;;;;;;;16.85;11.57;;;15.80;99.90;;;;;;5014158;28;20171;-92
2023/09/15 03:58:09;;;;;;;12.82;8.68;;;15.80;99.90;;;;;;5029589;28;20045;-92
2023/09/15 04:00:35;;;;;;;23.23;12.13;;;15.80;99.90;;;;;;5029751;28;20076;-94
2023/09/15 04:03:03;;;;;;;18.98;11.63;;;15.80;99.90;;;;;;5014015;28;20128;-91
2023/09/15 04:05:30;;;;;;;16.95;12.18;;;15.80;99.90;;;;;;5030339;28;20026;-93
2023/09/15 04:07:56;;;;;;;17.35;12.52;;;15.80;99.90;;;;;;5013564;28;20061;-93
2023/09/15 04:10:22;;;;;;;22.75;13.23;;;15.80;99.90;;;;;;5032686;28;20029;-93
2023/09/15 04:12:48;;;;;;;22.25;13.13;;;15.80;99.90;;;;;;5032476;28;20036;-94
2023/09/15 04:15:15;;;;;;;18.58;13.48;;;15.80;99.90;;;;;;5032995;28;20471;-91
2023/09/15 04:17:41;;;;;;;21.80;12.82;;;15.90;99.90;;;;;;5033175;28;20052;-92
2023/09/15 04:20:09;;;;;;;18.00;12.32;;;15.90;99.90;;;;;;5032347;28;20072;-92
2023/09/15 04:22:39;;;;;;;12.65;9.20;;;15.90;99.90;;;;;;5033099;28;20107;-91
2023/09/15 04:25:06;;;;;;;16.80;11.75;;;15.90;99.90;;;;;;5033057;28;20018;-91
2023/09/15 04:27:32;;;;;;;18.38;12.27;;;15.90;99.90;;;;;;5033026;28;20029;-91
2023/09/15 04:29:58;;;;;;;17.70;11.02;;;15.90;99.90;;;;;;5032197;28;20025;-91
2023/09/15 04:32:24;;;;;;;16.80;11.98;;;15.90;99.90;;;;;;5032950;28;20475;-92
2023/09/15 04:34:51;;;;;;;16.08;12.07;;;15.90;99.90;;;;;;5032538;28;20026;-92
2023/09/15 04:37:25;;;;;;;18.02;11.75;;;15.90;99.90;;;;;;5033143;28;20036;-91
2023/09/15 04:39:51;;;;;;;21.10;12.52;;;15.90;99.90;;;;;;5032453;28;20029;-92
2023/09/15 04:42:17;;;;;;;23.08;13.00;;;15.90;99.90;;;;;;5031845;28;20080;-92
2023/09/15 04:44:43;;;;;;;19.75;13.27;;;15.90;99.90;;;;;;5033089;28;20030;-92
2023/09/15 04:47:09;;;;;;;17.13;11.32;;;15.90;99.90;;;;;;5033165;28;20108;-93
2023/09/15 04:49:35;;;;;;;23.60;11.75;;;15.80;99.90;;;;;;5033272;28;20104;-93
2023/09/15 04:52:01;;;;;;;20.67;12.48;;;15.80;99.90;;;;;;5032272;28;20504;-93
2023/09/15 04:54:27;;;;;;;17.73;11.13;;;15.80;99.90;;;;;;5032047;28;20036;-92
2023/09/15 04:56:53;;;;;;;21.73;13.07;;;15.80;99.90;;;;;;5031769;28;20029;-94
2023/09/15 04:59:19;;;;;;;20.38;13.52;;;15.80;99.90;;;;;;5032349;28;20061;-93
2023/09/15 05:01:46;;;;;;;22.60;13.38;;;15.80;99.90;;;;;;5032064;28;20045;-95
2023/09/15 05:04:18;;;;;;;19.10;13.05;;;15.80;99.90;;;;;;5031770;28;20040;-94
2023/09/15 05:06:44;;;;;;;17.60;12.23;;;15.80;99.90;;;;;;5031778;28;20022;-94
2023/09/15 05:09:10;;;;;;;22.15;14.55;;;15.80;99.90;;;;;;5031513;28;20029;-94
2023/09/15 05:11:37;;;;;;;23.95;13.52;;;15.80;99.90;;;;;;5033551;28;20431;-94
2023/09/15 05:14:03;;;;;;;22.38;14.13;;;15.70;99.90;;;;;;5034882;28;20025;-91
2023/09/15 05:16:29;;;;;;;17.95;10.98;;;15.70;99.90;;;;;;5034833;28;20029;-93
2023/09/15 05:18:55;;;;;;;22.48;14.55;;;15.70;99.90;;;;;;5039594;28;20054;-91
2023/09/15 05:21:21;;;;;;;25.40;14.10;;;15.70;99.90;;;;;;5039132;28;20380;-93
2023/09/15 05:23:46;;;;;;;23.00;13.90;;;15.70;99.90;;;;;;5033298;28;20048;-93
2023/09/15 05:26:12;;;;;;;18.85;12.57;;;15.70;99.90;;;;;;5034228;28;20029;-94
2023/09/15 05:28:38;;;;;;;22.40;14.32;;;15.70;99.90;;;;;;5032909;28;20483;-93
2023/09/15 05:31:03;;;;;;;22.17;13.45;;;15.70;99.90;;;;;;5031928;28;20025;-94
2023/09/15 05:33:29;;;;;;;23.45;13.93;;;15.70;99.90;;;;;;5031799;28;20083;-93
2023/09/15 05:35:58;;;;;;;17.40;11.45;;;15.70;99.90;;;;;;5031615;28;20049;-93
2023/09/15 05:38:24;;;;;;;21.88;13.85;;;15.70;99.90;;;;;;5031424;28;20021;-94
2023/09/15 05:40:51;;;;;;;21.17;13.45;;;15.70;99.90;;;;;;5031991;28;20026;-93
2023/09/15 05:43:17;;;;;;;20.50;14.65;;;15.70;99.90;;;;;;5029888;28;20021;-93
2023/09/15 05:45:43;;;;;;;22.15;14.10;;;15.70;99.90;;;;;;5030224;28;20376;-93
2023/09/15 05:48:12;;;;;;;21.67;14.10;;;15.70;99.90;;;;;;5034759;28;20112;-94
2023/09/15 05:50:38;;;;;;;29.23;13.50;;;15.70;99.90;;;;;;5040678;28;20029;-93
2023/09/15 05:53:04;;;;;;;20.45;13.27;;;15.70;99.90;;;;;;5038697;28;20133;-91
2023/09/15 05:55:30;;;;;;;21.95;13.50;;;15.70;99.90;;;;;;5043084;28;20029;-89
2023/09/15 05:57:56;;;;;;;20.10;12.55;;;15.70;99.90;;;;;;5033071;28;20044;-91
2023/09/15 06:00:22;;;;;;;20.83;12.73;;;15.80;99.90;;;;;;5032415;28;20025;-90
2023/09/15 06:02:48;;;;;;;20.20;13.25;;;15.80;99.90;;;;;;5030691;28;20030;-92
2023/09/15 06:05:13;;;;;;;19.98;13.25;;;15.80;99.90;;;;;;5031116;28;20461;-92
2023/09/15 06:07:39;;;;;;;24.10;14.98;;;15.80;99.90;;;;;;5035717;28;20017;-89
2023/09/15 06:10:06;;;;;;;24.35;15.68;;;15.80;99.90;;;;;;5040895;28;20061;-91
2023/09/15 06:12:32;;;;;;;26.80;15.93;;;15.80;99.90;;;;;;5034739;28;20040;-90
2023/09/15 06:14:58;;;;;;;26.70;15.73;;;15.80;99.90;;;;;;5041630;28;20029;-91
2023/09/15 06:17:24;;;;;;;23.85;15.15;;;15.80;99.90;;;;;;5041041;28;20041;-90
2023/09/15 06:19:51;;;;;;;24.85;15.43;;;15.80;99.90;;;;;;5040959;28;20045;-91
2023/09/15 06:22:17;;;;;;;26.95;15.65;;;15.70;99.90;;;;;;5037894;28;20029;-92
2023/09/15 06:24:42;;;;;;;21.40;13.05;;;15.80;99.90;;;;;;5038581;28;20021;-91
2023/09/15 06:27:08;;;;;;;23.88;14.80;;;15.70;99.90;;;;;;5037309;28;20041;-92
2023/09/15 06:29:34;;;;;;;24.63;15.60;;;15.80;99.90;;;;;;5035277;28;20044;-91
2023/09/15 06:31:59;;;;;;;26.55;15.00;;;15.80;99.90;;;;;;5034785;28;20033;-91
2023/09/15 06:34:25;;;;;;;23.05;15.10;;;15.80;99.90;;;;;;5036126;28;20025;-92
2023/09/15 06:36:51;;;;;;;24.83;14.25;;;15.80;99.90;;;;;;5034118;28;20018;-92
2023/09/15 06:39:16;;;;;;;24.30;15.02;;;15.80;99.90;;;;;;5036116;28;20075;-92
2023/09/15 06:41:42;;;;;;;25.52;15.45;;;15.80;99.90;;;;;;5035136;28;20049;-92
2023/09/15 06:44:10;;;;;;;24.13;14.55;;;15.90;99.90;;;;;;5033897;28;20509;-93
2023/09/15 06:46:35;;;;;;;22.63;14.93;;;15.90;99.90;;;;;;5033646;28;20028;-92
2023/09/15 06:49:01;;;;;;;22.92;14.70;;;15.90;99.90;;;;;;5034702;28;20025;-92
2023/09/15 06:51:27;;;;;;;24.88;14.38;;;15.90;99.90;;;;;;5032915;28;20036;-92
2023/09/15 06:53:53;;;;;;;22.02;14.13;;;15.90;99.90;;;;;;5033802;28;20434;-92
2023/09/15 06:56:19;;;;;;;22.45;13.60;;;15.90;99.90;;;;;;5034909;28;20025;-91
2023/09/15 06:58:46;;;;;;;23.52;13.50;;;16.00;99.90;;;;;;5034167;28;20033;-90
2023/09/15 07:01:11;;;;;;;22.80;13.63;;;16.00;99.90;;;;;;5033434;28;20033;-92
2023/09/15 07:03:37;;;;;;;22.98;13.82;;;16.10;99.90;;;;;;5033738;28;20045;-92
2023/09/15 07:06:03;;;;;;;22.58;13.18;;;16.10;99.90;;;;;;5031429;28;20022;-91
2023/09/15 07:08:29;;;;;;;23.13;12.65;;;16.10;99.90;;;;;;5033175;28;20071;-90
2023/09/15 07:10:54;;;;;;;23.17;13.65;;;16.20;99.90;;;;;;5033644;28;20021;-92
2023/09/15 07:13:20;;;;;;;22.20;12.82;;;16.20;99.90;;;;;;5028114;28;20025;-93
2023/09/15 07:15:47;;;;;;;25.80;13.70;;;16.30;99.90;;;;;;5034802;28;20095;-93
2023/09/15 07:18:13;;;;;;;23.33;12.50;;;16.30;99.90;;;;;;5032999;28;20068;-92
2023/09/15 07:20:38;;;;;;;24.17;12.90;;;16.30;99.90;;;;;;5045255;28;20049;-90
2023/09/15 07:23:05;;;;;;;24.95;12.02;;;16.40;99.90;;;;;;5035002;28;20446;-92
2023/09/15 07:25:31;;;;;;;21.83;12.82;;;16.40;99.90;;;;;;5034911;28;20036;-92
2023/09/15 07:27:56;;;;;;;22.08;13.73;;;16.40;99.90;;;;;;5030740;28;20033;-92
2023/09/15 07:30:22;;;;;;;24.83;13.40;;;16.50;99.90;;;;;;5020059;28;20029;-92
2023/09/15 07:32:48;;;;;;;22.65;12.57;;;16.50;99.90;;;;;;5020961;28;20029;-91
2023/09/15 07:35:14;;;;;;;22.00;14.48;;;16.50;99.90;;;;;;5013929;28;20030;-90
2023/09/15 07:37:40;;;;;;;24.25;14.30;;;16.60;99.90;;;;;;5025469;28;20031;-91
2023/09/15 07:40:09;;;;;;;20.17;12.35;;;16.70;99.90;;;;;;5026260;28;20060;-92
2023/09/15 07:42:36;;;;;;;21.02;12.00;;;16.70;99.90;;;;;;5031639;28;20394;-92
2023/09/15 07:45:03;;;;;;;25.75;15.05;;;16.70;99.90;;;;;;5032272;28;20087;-92
2023/09/15 07:47:28;;;;;;;20.88;13.02;;;16.70;99.90;;;;;;5033521;28;20017;-90
2023/09/15 07:49:55;;;;;;;27.50;13.90;;;16.80;99.90;;;;;;5033589;28;20025;-92
2023/09/15 07:52:22;;;;;;;23.17;14.38;;;16.90;99.90;;;;;;5032978;28;20036;-93
2023/09/15 07:54:47;;;;;;;17.30;10.80;;;17.00;99.90;;;;;;5031306;28;20076;-91
2023/09/15 07:57:14;;;;;;;15.75;10.15;;;17.00;99.90;;;;;;5034467;28;20073;-93
2023/09/15 07:59:40;;;;;;;19.85;11.13;;;17.10;99.90;;;;;;5035877;28;20115;-94
2023/09/15 08:02:06;;;;;;;22.23;13.80;;;17.20;99.90;;;;;;5040219;28;20033;-95
2023/09/15 08:04:32;;;;;;;20.98;12.35;;;17.30;99.90;;;;;;5036252;28;20041;-96
2023/09/15 08:06:58;;;;;;;19.02;11.35;;;17.30;99.90;;;;;;5034267;28;20029;-93
2023/09/15 08:09:23;;;;;;;19.88;12.23;;;17.30;99.90;;;;;;5032561;28;20475;-94
2023/09/15 08:11:49;;;;;;;18.00;10.57;;;17.40;99.90;;;;;;5032567;28;20036;-94
2023/09/15 08:14:15;;;;;;;16.45;9.13;;;17.40;99.90;;;;;;5031973;28;20040;-94
2023/09/15 08:16:41;;;;;;;11.18;7.63;;;17.40;99.90;;;;;;5033559;28;20017;-93
2023/09/15 08:19:07;;;;;;;12.35;8.07;;;17.40;99.90;;;;;;5031953;28;20129;-94
2023/09/15 08:21:33;;;;;;;11.27;6.97;;;17.40;99.90;;;;;;5033000;28;20442;-95
2023/09/15 08:23:59;;;;;;;11.98;7.65;;;17.50;99.90;;;;;;5032990;28;20042;-94
2023/09/15 08:26:25;;;;;;;15.48;7.60;;;17.50;99.90;;;;;;5033557;28;20024;-91
2023/09/15 08:28:51;;;;;;;13.63;7.32;;;17.60;99.90;;;;;;5031754;28;20036;-92
2023/09/15 08:31:17;;;;;;;10.50;7.05;;;17.70;99.90;;;;;;5031199;28;20123;-94
2023/09/15 08:33:43;;;;;;;12.27;7.53;;;17.80;99.90;;;;;;5035817;28;20025;-95
2023/09/15 08:36:09;;;;;;;19.38;8.60;;;17.80;99.90;;;;;;5036684;28;20036;-94
2023/09/15 08:38:34;;;;;;;18.65;8.95;;;17.90;99.90;;;;;;5032194;28;20025;-95
2023/09/15 08:41:20;;;;;;;13.55;8.60;;;18.00;99.90;;;;;;5037072;28;20025;-95
2023/09/15 08:43:46;;;;;;;13.55;8.50;;;18.10;99.90;;;;;;5052720;28;20138;-94
2023/09/15 08:46:14;;;;;;;16.27;8.35;;;18.10;99.90;;;;;;5051949;28;20033;-94
2023/09/15 08:48:46;;;;;;;12.20;7.28;;;18.20;99.90;;;;;;5052847;28;20025;-96
2023/09/15 08:51:13;;;;;;;11.88;8.23;;;18.40;99.90;;;;;;5036285;28;20120;-94
2023/09/15 08:53:41;;;;;;;12.70;8.38;;;18.50;99.90;;;;;;5034616;28;20432;-95
2023/09/15 08:56:07;;;;;;;14.20;9.40;;;18.60;99.90;;;;;;5043568;28;20025;-94
2023/09/15 08:58:35;;;;;;;11.25;7.50;;;18.80;99.90;;;;;;5053009;28;20029;-93
2023/09/15 09:01:07;;;;;;;10.60;7.43;;;18.80;99.90;;;;;;5053630;28;20082;-94
2023/09/15 09:03:35;;;;;;;11.75;7.32;;;18.80;99.90;;;;;;5052893;28;20033;-95
2023/09/15 09:06:03;;;;;;;15.73;8.38;;;18.90;99.90;;;;;;5059370;28;20025;-95
2023/09/15 09:08:29;;;;;;;9.60;6.22;;;18.90;99.90;;;;;;5064373;28;20049;-95
2023/09/15 09:10:55;;;;;;;13.73;7.70;;;18.90;99.90;;;;;;5069520;28;20021;-96
2023/09/15 09:13:23;;;;;;;12.18;6.97;;;19.00;99.90;;;;;;5070213;28;20029;-95
2023/09/15 09:15:51;;;;;;;14.52;9.20;;;19.00;99.90;;;;;;5067491;28;20021;-95
2023/09/15 09:18:20;;;;;;;12.60;7.13;;;19.10;99.90;;;;;;5062107;28;20025;-94
2023/09/15 09:20:50;;;;;;;13.20;8.57;;;19.10;99.90;;;;;;5058370;28;20044;-93
2023/09/15 09:23:20;;;;;;;12.32;7.32;;;19.10;99.90;;;;;;5056525;28;20037;-95
2023/09/15 09:25:46;;;;;;;10.05;6.15;;;19.20;99.90;;;;;;5054705;28;20043;-95
2023/09/15 09:28:14;;;;;;;11.25;6.60;;;19.30;99.90;;;;;;5055118;28;20124;-95
2023/09/15 09:30:40;;;;;;;8.68;5.95;;;19.50;99.90;;;;;;5053494;28;20102;-96
2023/09/15 09:33:08;;;;;;;6.88;4.68;;;19.60;99.90;;;;;;5052893;28;20053;-95
2023/09/15 09:35:35;;;;;;;11.75;5.88;;;19.80;99.90;;;;;;5041375;28;20070;-96
2023/09/15 09:38:01;;;;;;;6.93;5.03;;;19.90;99.90;;;;;;5055774;28;20094;-96
2023/09/15 09:40:27;;;;;;;7.95;5.43;;;20.10;99.90;;;;;;5054821;28;20021;-96
2023/09/15 09:42:55;;;;;;;7.75;4.18;;;20.20;99.90;;;;;;5059782;28;20037;-95
2023/09/15 09:45:31;;;;;;;8.48;4.90;;;20.40;99.90;;;;;;5058461;28;20033;-96
2023/09/15 09:48:00;;;;;;;6.93;4.15;;;20.50;99.90;;;;;;5061626;28;20029;-95
2023/09/15 09:50:29;;;;;;;7.82;4.18;;;20.60;99.90;;;;;;5057465;28;20029;-95
2023/09/15 09:52:55;;;;;;;5.95;4.00;;;20.60;99.90;;;;;;5057412;28;20029;-96
2023/09/15 09:55:24;;;;;;;10.55;5.03;;;20.50;99.90;;;;;;5057169;28;20029;-95
2023/09/15 09:57:51;;;;;;;9.25;4.82;;;20.40;99.90;;;;;;5039610;28;20029;-96
2023/09/15 10:00:21;;;;;;;14.27;6.40;;;20.20;99.90;;;;;;5039128;28;20060;-96
2023/09/15 10:02:47;;;;;;;;;;;20.30;99.90;;;;;;5034935;28;20037;-95
2023/09/15 10:05:14;;;;;;;8.60;4.40;;;20.40;99.90;;;;;;5046943;28;19917;-95
2023/09/15 10:07:41;;;;;;;6.72;4.00;;;20.50;99.90;;;;;;5044131;28;20021;-96
2023/09/15 10:10:10;;;;;;;6.65;3.00;;;20.70;99.90;;;;;;5044353;28;20151;-94
2023/09/15 10:12:36;;;;;;;5.88;3.17;;;20.70;99.90;;;;;;5035664;28;20018;-94
2023/09/15 10:15:04;;;;;;;4.65;3.03;;;20.80;99.90;;;;;;5036275;28;20044;-95
2023/09/15 10:17:31;;;;;;;4.95;2.92;;;20.80;99.90;;;;;;5058827;28;20041;-94
2023/09/15 10:19:58;;;;;;;7.13;3.35;;;20.80;99.90;;;;;;5051708;28;20053;-95
2023/09/15 10:22:24;;;;;;;5.88;3.25;;;20.70;99.90;;;;;;5060505;28;20514;-95
2023/09/15 10:24:56;;;;;;;6.47;3.55;;;20.70;99.90;;;;;;5058879;28;20024;-95
2023/09/15 10:27:22;;;;;;;9.48;5.15;;;20.80;99.90;;;;;;5058546;28;20033;-95
2023/09/15 10:29:48;;;;;;;9.52;5.78;;;20.90;99.90;;;;;;5057854;28;20385;-95
2023/09/15 10:32:17;;;;;;;12.05;5.93;;;21.00;99.90;;;;;;5056237;28;20021;-94
2023/09/15 10:34:44;;;;;;;15.02;7.40;;;20.90;99.90;;;;;;5055691;28;20501;-95
2023/09/15 10:37:10;;;;;;;8.00;4.78;;;20.90;99.90;;;;;;5045578;28;20071;-96
2023/09/15 10:39:38;;;;;;;7.50;4.43;;;21.00;99.90;;;;;;5025815;28;20025;-96
2023/09/15 10:42:09;;;;;;;9.15;4.07;;;20.90;99.90;;;;;;5028585;28;20506;-95
2023/09/15 10:44:35;;;;;;;9.98;4.03;;;21.00;99.90;;;;;;5038564;28;20106;-96
2023/09/15 10:47:01;;;;;;;6.18;3.67;;;21.10;99.90;;;;;;5030542;28;20265;-96
2023/09/15 10:49:26;;;;;;;8.93;3.70;;;21.20;99.90;;;;;;5056754;28;20032;-95
2023/09/15 10:51:53;;;;;;;5.28;3.40;;;21.30;99.90;;;;;;5029413;28;20037;-96
2023/09/15 10:54:20;;;;;;;4.88;3.47;;;21.60;99.90;;;;;;5038788;28;20021;-96
2023/09/15 10:56:47;;;;;;;10.70;4.32;;;21.90;99.90;;;;;;5031308;28;20061;-96
2023/09/15 10:59:16;;;;;;;6.57;3.97;;;22.20;99.90;;;;;;5036226;28;20022;-96
2023/09/15 11:01:43;;;;;;;5.85;4.40;;;22.40;99.90;;;;;;5055588;28;20032;-96
2023/09/15 11:04:12;;;;;;;11.00;5.03;;;22.60;98.80;;;;;;5062819;28;20041;-95
2023/09/15 11:06:39;;;;;;;6.88;3.60;;;22.80;97.60;;;;;;5060488;28;20021;-95
2023/09/15 11:09:05;;;;;;;7.55;3.78;;;23.00;96.90;;;;;;5057579;28;20025;-96
2023/09/15 11:11:32;;;;;;;5.43;3.25;;;23.30;96.00;;;;;;5062816;28;20363;-95
2023/09/15 11:14:00;;;;;;;6.13;2.97;;;23.50;94.80;;;;;;5069111;28;20029;-95
2023/09/15 11:16:27;;;;;;;3.95;2.53;;;23.80;93.60;;;;;;5065179;28;20060;-94
2023/09/15 11:18:54;;;;;;;6.18;3.13;;;24.00;91.70;;;;;;5059707;28;20056;-95
2023/09/15 11:21:23;;;;;;;6.88;3.50;;;24.10;90.70;;;;;;5064216;28;20100;-95
2023/09/15 11:23:49;;;;;;;6.63;2.80;;;24.10;88.90;;;;;;5060330;28;20033;-96
2023/09/15 11:26:15;;;;;;;5.32;3.13;;;24.20;88.40;;;;;;5060049;28;20021;-95
2023/09/15 11:28:40;;;;;;;7.10;3.30;;;24.40;86.60;;;;;;5061629;28;20028;-95
2023/09/15 11:31:08;;;;;;;6.80;2.70;;;24.60;85.40;;;;;;5062831;28;20056;-96
2023/09/15 11:33:34;;;;;;;5.28;2.63;;;24.80;83.10;;;;;;5043295;28;20056;-96
2023/09/15 11:36:04;;;;;;;3.75;2.38;;;24.90;82.50;;;;;;5029641;28;20030;-96
2023/09/15 11:38:31;;;;;;;5.57;2.55;;;24.80;78.80;;;;;;5037478;28;20030;-96
2023/09/15 11:40:57;;;;;;;3.65;2.10;;;24.70;78.60;;;;;;5033487;28;20029;-96
2023/09/15 11:43:23;;;;;;;6.78;2.85;;;24.60;77.30;;;;;;5030146;28;20033;-95
2023/09/15 11:45:51;;;;;;;5.97;2.90;;;24.50;78.50;;;;;;5026874;28;20044;-96
2023/09/15 11:48:17;;;;;;;8.38;3.10;;;24.50;79.20;;;;;;5045030;28;20037;-94
2023/09/15 11:50:44;;;;;;;7.43;2.90;;;24.50;79.30;;;;;;5024881;28;20028;-94
2023/09/15 11:53:12;;;;;;;5.93;3.22;;;24.30;79.40;;;;;;5029619;28;20036;-96
2023/09/15 11:55:38;;;;;;;3.70;2.70;;;24.10;79.70;;;;;;5042331;28;20017;-96
2023/09/15 11:58:04;;;;;;;4.65;2.80;;;24.10;80.20;;;;;;5035723;28;20021;-95
2023/09/15 12:00:31;;;;;;;4.10;3.22;;;24.20;80.30;;;;;;5035427;28;20029;-96
2023/09/15 12:02:59;;;;;;;6.40;3.25;;;24.30;80.00;;;;;;5035641;28;20029;-96
2023/09/15 12:05:26;;;;;;;5.82;3.00;;;24.40;80.00;;;;;;5040125;28;20091;-96
2023/09/15 12:07:52;;;;;;;5.65;3.90;;;24.60;80.10;;;;;;5042973;28;20029;-96
2023/09/15 12:10:26;;;;;;;6.70;3.53;;;24.80;79.20;;;;;;5043146;28;20040;-95
2023/09/15 12:12:57;;;;;;;3.88;2.60;;;24.90;78.60;;;;;;5047422;28;20088;-96
2023/09/15 12:15:26;;;;;;;;;;;24.80;77.70;;;;;;5033789;28;20033;-96
2023/09/15 12:17:52;;;;;;;6.57;2.90;;;24.60;77.50;;;;;;5041304;28;19912;-96
2023/09/15 12:20:23;;;;;;;5.85;3.00;;;24.70;77.80;;;;;;5038335;28;20091;-96
2023/09/15 12:22:50;;;;;;;4.45;2.53;;;24.80;77.60;;;;;;5047325;28;20055;-96
2023/09/15 12:25:16;;;;;;;4.45;2.42;;;25.10;77.40;;;;;;5064249;28;20021;-95
2023/09/15 12:27:43;;;;;;;4.90;2.65;;;25.30;75.00;;;;;;5062685;28;20033;-96
2023/09/15 12:30:11;;;;;;;5.63;3.08;;;25.20;75.00;;;;;;5062825;28;20029;-94
2023/09/15 12:32:37;;;;;;;7.07;3.10;;;25.20;75.30;;;;;;5067404;28;20031;-95